createdAt,value
2022-12-22T00:02:12.990Z,9.10
2022-12-22T00:05:01.124Z,9.10
2022-12-22T00:07:46.495Z,9.20
2022-12-22T00:10:32.955Z,9.20
2022-12-22T00:13:18.000Z,9.20
2022-12-22T00:16:03.055Z,9.20
2022-12-22T00:18:48.119Z,9.20
2022-12-22T00:21:33.743Z,9.20
2022-12-22T00:24:18.897Z,9.20
2022-12-22T00:27:05.597Z,9.10
2022-12-22T00:29:53.824Z,9.10
2022-12-22T00:32:39.411Z,9.10
2022-12-22T00:35:30.131Z,9.10
2022-12-22T00:38:15.300Z,9.00
2022-12-22T00:41:00.460Z,9.00
2022-12-22T00:43:46.743Z,9.00
2022-12-22T00:46:34.483Z,9.00
2022-12-22T00:49:19.626Z,9.00
2022-12-22T00:52:04.849Z,8.90
2022-12-22T00:54:49.917Z,8.90
2022-12-22T00:57:36.009Z,8.90
2022-12-22T01:00:23.839Z,8.90
2022-12-22T01:03:09.165Z,8.90
2022-12-22T01:05:54.461Z,8.90
2022-12-22T01:08:39.757Z,8.90
2022-12-22T01:11:25.921Z,8.90
2022-12-22T01:14:10.943Z,8.90
2022-12-22T01:16:57.308Z,8.90
2022-12-22T01:19:42.301Z,8.90
2022-12-22T01:22:29.467Z,9.00
2022-12-22T01:25:14.629Z,8.90
2022-12-22T01:27:59.699Z,8.90
2022-12-22T01:30:44.908Z,8.90
2022-12-22T01:33:31.881Z,8.90
2022-12-22T01:36:17.052Z,8.90
2022-12-22T01:39:02.253Z,8.90
2022-12-22T01:41:47.217Z,8.90
2022-12-22T01:44:33.520Z,8.90
2022-12-22T01:47:33.732Z,8.90
2022-12-22T01:50:20.584Z,8.90
2022-12-22T01:53:05.667Z,8.90
2022-12-22T01:55:50.769Z,8.90
2022-12-22T01:58:40.108Z,8.90
2022-12-22T02:01:25.180Z,8.90
2022-12-22T02:04:10.460Z,8.90
2022-12-22T02:07:00.476Z,8.90
2022-12-22T02:09:50.104Z,8.90
2022-12-22T02:12:38.167Z,8.90
2022-12-22T02:15:31.532Z,8.90
2022-12-22T02:18:20.492Z,8.90
2022-12-22T02:21:07.056Z,9.00
2022-12-22T02:23:59.759Z,9.00
2022-12-22T02:26:47.742Z,9.00
2022-12-22T02:29:34.437Z,9.00
2022-12-22T02:32:20.094Z,9.00
2022-12-22T02:35:05.304Z,9.00
2022-12-22T02:38:07.056Z,9.00
2022-12-22T02:40:57.202Z,9.00
2022-12-22T02:43:51.050Z,9.00
2022-12-22T02:46:39.624Z,9.00
2022-12-22T02:49:29.037Z,8.90
2022-12-22T02:52:17.225Z,9.00
2022-12-22T02:55:03.311Z,9.00
2022-12-22T02:57:48.384Z,9.00
2022-12-22T03:00:35.329Z,9.00
2022-12-22T03:03:22.790Z,9.00
2022-12-22T03:06:08.222Z,9.00
2022-12-22T03:08:53.433Z,9.00
2022-12-22T03:11:38.846Z,9.00
2022-12-22T03:14:24.157Z,9.00
2022-12-22T03:17:09.503Z,9.10
2022-12-22T03:19:55.934Z,9.10
2022-12-22T03:22:41.126Z,9.10
2022-12-22T03:25:26.514Z,9.10
2022-12-22T03:27:54.157Z,9.00
2022-12-22T03:30:21.820Z,9.00
2022-12-22T03:32:49.462Z,9.00
2022-12-22T03:35:18.478Z,9.00
2022-12-22T03:37:46.119Z,9.00
2022-12-22T03:40:14.059Z,9.10
2022-12-22T03:42:59.372Z,9.10
2022-12-22T03:45:44.437Z,9.00
2022-12-22T03:48:12.388Z,9.00
2022-12-22T03:50:41.371Z,9.10
2022-12-22T03:53:09.012Z,9.00
2022-12-22T03:55:36.655Z,9.00
2022-12-22T03:58:04.324Z,9.00
2022-12-22T04:00:31.971Z,9.00
2022-12-22T04:02:59.775Z,9.00
2022-12-22T04:05:27.740Z,9.10
2022-12-22T04:07:56.771Z,9.10
2022-12-22T04:10:41.831Z,9.10
2022-12-22T04:13:09.479Z,9.10
2022-12-22T04:15:37.221Z,9.10
2022-12-22T04:18:05.260Z,9.10
2022-12-22T04:20:32.978Z,9.10
2022-12-22T04:23:02.007Z,9.10
2022-12-22T04:25:29.732Z,9.20
2022-12-22T04:27:57.401Z,9.20
2022-12-22T04:30:25.051Z,9.20
2022-12-22T04:32:52.751Z,9.20
2022-12-22T04:35:20.397Z,9.20
2022-12-22T04:37:48.044Z,9.20
2022-12-22T04:40:17.113Z,9.20
2022-12-22T04:42:44.758Z,9.20
2022-12-22T04:45:12.439Z,9.20
2022-12-22T04:47:40.115Z,9.10
2022-12-22T04:50:08.328Z,9.20
2022-12-22T04:52:35.970Z,9.20
2022-12-22T04:55:04.107Z,9.30
2022-12-22T04:57:38.601Z,9.40
2022-12-22T05:00:08.674Z,9.30
2022-12-22T05:02:36.493Z,9.40
2022-12-22T05:05:04.331Z,9.40
2022-12-22T05:07:31.993Z,9.40
2022-12-22T05:09:59.650Z,9.40
2022-12-22T05:12:44.748Z,9.40
2022-12-22T05:15:13.708Z,9.40
2022-12-22T05:17:41.420Z,9.30
2022-12-22T05:20:10.029Z,9.40
2022-12-22T05:22:37.677Z,9.30
2022-12-22T05:25:05.675Z,9.30
2022-12-22T05:27:33.325Z,9.40
2022-12-22T05:30:00.954Z,9.30
2022-12-22T05:32:29.951Z,9.30
2022-12-22T05:34:57.628Z,9.30
2022-12-22T05:37:25.326Z,9.30
2022-12-22T05:39:52.987Z,9.30
2022-12-22T05:42:35.758Z,9.20
2022-12-22T05:45:04.611Z,9.30
2022-12-22T05:47:33.674Z,9.30
2022-12-22T05:50:01.439Z,9.20
2022-12-22T05:52:29.912Z,9.20
2022-12-22T05:54:57.632Z,9.20
2022-12-22T05:57:25.346Z,9.20
2022-12-22T05:59:53.003Z,9.20
2022-12-22T06:02:20.843Z,9.20
2022-12-22T06:04:49.996Z,9.30
2022-12-22T06:07:17.723Z,9.30
2022-12-22T06:09:45.444Z,9.30
2022-12-22T06:12:13.145Z,9.40
2022-12-22T06:14:40.843Z,9.40
2022-12-22T06:17:08.515Z,9.50
2022-12-22T06:19:36.330Z,9.50
2022-12-22T06:22:05.315Z,9.50
2022-12-22T06:24:32.970Z,9.50
2022-12-22T06:27:00.634Z,9.50
2022-12-22T06:29:28.294Z,9.50
2022-12-22T06:31:55.941Z,9.50
2022-12-22T06:34:23.601Z,9.50
2022-12-22T06:36:51.244Z,9.50
2022-12-22T06:39:20.254Z,9.50
2022-12-22T06:42:05.603Z,9.50
2022-12-22T06:44:33.342Z,9.50
2022-12-22T06:47:01.029Z,9.50
2022-12-22T06:49:28.831Z,9.50
2022-12-22T06:51:56.512Z,9.50
2022-12-22T06:54:26.424Z,9.60
2022-12-22T06:56:54.349Z,9.60
2022-12-22T06:59:21.993Z,9.50
2022-12-22T07:01:49.754Z,9.60
2022-12-22T07:04:20.694Z,9.60
2022-12-22T07:06:48.342Z,9.60
2022-12-22T07:09:16.037Z,9.70
2022-12-22T07:11:45.077Z,9.80
2022-12-22T07:14:12.725Z,9.90
2022-12-22T07:16:40.489Z,10.10
2022-12-22T07:19:08.277Z,10.20
2022-12-22T07:21:35.987Z,10.40
2022-12-22T07:24:03.677Z,10.40
2022-12-22T07:26:31.559Z,10.40
2022-12-22T07:29:00.543Z,10.50
2022-12-22T07:31:28.348Z,10.50
2022-12-22T07:33:56.195Z,10.50
2022-12-22T07:36:23.846Z,10.50
2022-12-22T07:38:52.229Z,10.60
2022-12-22T07:41:38.688Z,10.60
2022-12-22T07:44:08.027Z,10.60
2022-12-22T07:46:36.847Z,10.50
2022-12-22T07:49:22.912Z,10.50
2022-12-22T07:51:50.648Z,10.40
2022-12-22T07:54:18.459Z,10.40
2022-12-22T07:56:47.290Z,10.40
2022-12-22T07:59:16.597Z,10.30
2022-12-22T08:01:45.527Z,10.30
2022-12-22T08:04:14.040Z,10.30
2022-12-22T08:06:41.810Z,10.30
2022-12-22T08:09:10.307Z,10.20
2022-12-22T08:11:38.269Z,10.20
2022-12-22T08:14:05.920Z,10.20
2022-12-22T08:16:35.032Z,10.20
2022-12-22T08:19:02.870Z,10.20
2022-12-22T08:21:30.531Z,10.20
2022-12-22T08:23:58.257Z,10.20
2022-12-22T08:26:28.587Z,10.30
2022-12-22T08:28:57.593Z,10.30
2022-12-22T08:31:26.900Z,10.40
2022-12-22T08:33:56.893Z,10.40
2022-12-22T08:36:24.777Z,10.50
2022-12-22T08:38:52.777Z,10.50
2022-12-22T08:41:41.470Z,10.60
2022-12-22T08:44:09.147Z,10.60
2022-12-22T08:46:36.858Z,10.60
2022-12-22T08:49:06.014Z,10.70
2022-12-22T08:51:33.654Z,10.70
2022-12-22T08:54:05.954Z,10.70
2022-12-22T08:56:34.392Z,10.70
2022-12-22T08:59:04.996Z,10.80
2022-12-22T09:01:33.172Z,10.80
2022-12-22T09:04:01.316Z,10.70
2022-12-22T09:06:36.531Z,10.70
2022-12-22T09:09:09.180Z,10.80
2022-12-22T09:11:37.112Z,10.70
2022-12-22T09:14:05.433Z,10.70
2022-12-22T09:16:33.965Z,10.70
2022-12-22T09:19:02.032Z,10.60
2022-12-22T09:21:31.816Z,10.60
2022-12-22T09:23:59.783Z,10.60
2022-12-22T09:26:29.470Z,10.50
2022-12-22T09:28:57.510Z,10.50
2022-12-22T09:31:26.205Z,10.50
2022-12-22T09:33:54.119Z,10.50
2022-12-22T09:36:23.425Z,10.50
2022-12-22T09:38:52.759Z,10.50
2022-12-22T09:41:22.541Z,10.40
2022-12-22T09:43:50.228Z,10.40
2022-12-22T09:46:21.081Z,10.40
2022-12-22T09:48:48.785Z,10.40
2022-12-22T09:51:21.172Z,10.40
2022-12-22T09:53:55.421Z,10.40
2022-12-22T09:56:24.270Z,10.40
2022-12-22T09:58:51.946Z,10.40
2022-12-22T10:01:39.995Z,10.40
2022-12-22T10:04:13.529Z,10.40
2022-12-22T10:06:44.392Z,10.40
2022-12-22T10:09:46.119Z,10.40
2022-12-22T10:12:05.930Z,10.40
2022-12-22T10:14:35.855Z,10.40
2022-12-22T10:17:16.796Z,10.50
2022-12-22T10:19:44.717Z,10.50
2022-12-22T10:22:21.367Z,10.60
2022-12-22T10:24:50.443Z,10.60
2022-12-22T10:27:18.469Z,10.60
2022-12-22T10:29:46.173Z,10.60
2022-12-22T10:32:14.717Z,10.70
2022-12-22T10:34:58.963Z,10.70
2022-12-22T10:37:31.367Z,10.70
2022-12-22T10:40:00.424Z,10.70
2022-12-22T10:42:28.114Z,10.70
2022-12-22T10:44:55.807Z,10.70
2022-12-22T10:47:25.787Z,10.80
2022-12-22T10:52:30.166Z,10.90
2022-12-22T10:55:13.652Z,10.90
2022-12-22T10:57:42.714Z,11.00
2022-12-22T11:00:23.106Z,11.00
2022-12-22T11:02:51.944Z,11.00
2022-12-22T11:05:19.896Z,11.00
2022-12-22T11:07:48.225Z,11.00
2022-12-22T11:10:18.467Z,11.00
2022-12-22T11:12:56.881Z,11.00
2022-12-22T11:15:28.464Z,11.10
2022-12-22T11:17:59.781Z,11.10
2022-12-22T11:20:33.981Z,11.10
2022-12-22T11:23:03.186Z,11.10
2022-12-22T11:25:38.004Z,11.20
2022-12-22T11:28:15.692Z,11.10
2022-12-22T11:30:49.131Z,11.10
2022-12-22T11:33:22.980Z,11.20
2022-12-22T11:35:58.066Z,11.10
2022-12-22T11:38:37.287Z,11.20
2022-12-22T11:41:08.420Z,11.10
2022-12-22T11:43:43.650Z,11.20
2022-12-22T11:46:16.332Z,11.20
2022-12-22T11:49:03.385Z,11.20
2022-12-22T11:51:38.908Z,11.20
2022-12-22T11:54:27.480Z,11.20
2022-12-22T11:57:00.411Z,11.20
2022-12-22T11:59:37.206Z,11.20
2022-12-22T12:02:20.651Z,11.20
2022-12-22T12:05:08.832Z,11.10
2022-12-22T12:07:39.382Z,11.10
2022-12-22T12:10:14.502Z,11.20
2022-12-22T12:12:47.059Z,11.20
2022-12-22T12:15:24.250Z,11.20
2022-12-22T12:18:00.172Z,11.10
2022-12-22T12:20:37.477Z,11.10
2022-12-22T12:23:11.011Z,11.10
2022-12-22T12:25:40.667Z,11.10
2022-12-22T12:28:14.673Z,11.10
2022-12-22T12:30:47.194Z,11.10
2022-12-22T12:33:18.240Z,11.20
2022-12-22T12:35:52.929Z,11.20
2022-12-22T12:39:05.784Z,11.20
2022-12-22T12:41:18.935Z,11.10
2022-12-22T12:43:47.404Z,11.10
2022-12-22T12:46:33.937Z,11.20
2022-12-22T12:49:02.957Z,11.10
2022-12-22T12:51:46.905Z,11.10
2022-12-22T12:54:38.776Z,11.10
2022-12-22T12:57:30.177Z,11.20
2022-12-22T12:59:58.375Z,11.10
2022-12-22T13:02:36.550Z,11.10
2022-12-22T13:05:12.880Z,11.20
2022-12-22T13:07:59.348Z,11.20
2022-12-22T13:10:27.499Z,11.10
2022-12-22T13:12:55.732Z,11.10
2022-12-22T13:15:30.978Z,11.10
2022-12-22T13:17:58.770Z,11.10
2022-12-22T13:20:28.786Z,11.10
2022-12-22T13:22:57.919Z,11.10
2022-12-22T13:25:26.639Z,11.10
2022-12-22T13:27:56.109Z,11.10
2022-12-22T13:30:23.873Z,11.10
2022-12-22T13:32:51.734Z,11.20
2022-12-22T13:35:42.984Z,11.20
2022-12-22T13:38:26.736Z,11.30
2022-12-22T13:40:54.480Z,11.10
2022-12-22T13:43:22.336Z,11.10
2022-12-22T13:45:51.227Z,11.20
2022-12-22T13:48:20.933Z,11.10
2022-12-22T13:50:49.779Z,11.10
2022-12-22T13:53:58.171Z,11.20
2022-12-22T13:56:09.307Z,11.10
2022-12-22T13:58:38.068Z,11.10
2022-12-22T14:01:14.863Z,11.00
2022-12-22T14:04:03.202Z,10.80
2022-12-22T14:06:32.044Z,10.70
2022-12-22T14:09:14.503Z,10.60
2022-12-22T14:11:48.854Z,10.60
2022-12-22T14:14:20.574Z,10.60
2022-12-22T14:16:49.824Z,10.60
2022-12-22T14:19:18.064Z,10.60
2022-12-22T14:21:46.425Z,10.60
2022-12-22T14:24:20.144Z,10.60
2022-12-22T14:26:48.201Z,10.60
2022-12-22T14:29:18.176Z,10.50
2022-12-22T14:31:52.689Z,10.50
2022-12-22T14:34:25.351Z,10.50
2022-12-22T14:36:53.948Z,10.40
2022-12-22T14:39:24.877Z,10.40
2022-12-22T14:41:53.901Z,10.30
2022-12-22T14:44:23.452Z,10.30
2022-12-22T14:47:03.928Z,10.30
2022-12-22T14:49:31.578Z,10.20
2022-12-22T14:52:04.175Z,10.20
2022-12-22T14:54:33.220Z,10.20
2022-12-22T14:57:03.296Z,10.20
2022-12-22T14:59:31.518Z,10.20
2022-12-22T15:02:00.391Z,10.20
2022-12-22T15:04:28.230Z,10.20
2022-12-22T15:07:05.357Z,10.10
2022-12-22T15:10:13.149Z,10.10
2022-12-22T15:12:21.990Z,10.20
2022-12-22T15:14:49.880Z,10.10
2022-12-22T15:17:21.617Z,10.10
2022-12-22T15:19:49.707Z,10.00
2022-12-22T15:22:17.369Z,10.00
2022-12-22T15:24:47.850Z,9.90
2022-12-22T15:27:15.545Z,9.90
2022-12-22T15:29:43.270Z,9.90
2022-12-22T15:32:11.872Z,9.80
2022-12-22T15:34:39.582Z,9.80
2022-12-22T15:37:07.373Z,9.90
2022-12-22T15:39:35.046Z,9.80
2022-12-22T15:42:04.147Z,9.90
2022-12-22T15:44:38.455Z,9.80
2022-12-22T15:47:07.114Z,9.80
2022-12-22T15:49:34.804Z,9.80
2022-12-22T15:52:03.711Z,9.70
2022-12-22T15:54:33.086Z,9.70
2022-12-22T15:57:00.958Z,9.70
2022-12-22T15:59:30.065Z,9.70
2022-12-22T16:02:01.890Z,9.60
2022-12-22T16:04:30.068Z,9.60
2022-12-22T16:06:59.461Z,9.60
2022-12-22T16:09:28.775Z,9.60
2022-12-22T16:11:56.464Z,9.60
2022-12-22T16:14:24.399Z,9.60
2022-12-22T16:16:53.387Z,9.60
2022-12-22T16:19:21.045Z,9.70
2022-12-22T16:21:49.297Z,9.70
2022-12-22T16:24:22.661Z,9.70
2022-12-22T16:26:50.343Z,9.70
2022-12-22T16:29:18.098Z,9.80
2022-12-22T16:31:46.003Z,9.80
2022-12-22T16:34:15.113Z,9.80
2022-12-22T16:36:42.746Z,9.80
2022-12-22T16:39:10.518Z,9.80
2022-12-22T16:41:38.185Z,9.70
2022-12-22T16:44:08.064Z,9.80
2022-12-22T16:46:37.587Z,9.60
2022-12-22T16:49:07.533Z,9.60
2022-12-22T16:51:38.720Z,9.60
2022-12-22T16:54:06.494Z,9.50
2022-12-22T16:56:34.875Z,9.50
2022-12-22T16:59:04.481Z,9.50
2022-12-22T17:01:34.811Z,9.60
2022-12-22T17:04:04.447Z,9.60
2022-12-22T17:06:32.208Z,9.60
2022-12-22T17:09:02.319Z,9.60
2022-12-22T17:11:32.396Z,9.60
2022-12-22T17:14:04.046Z,9.60
2022-12-22T17:16:31.804Z,9.70
2022-12-22T17:18:59.478Z,9.70
2022-12-22T17:21:28.418Z,9.60
2022-12-22T17:24:03.548Z,9.60
2022-12-22T17:26:33.728Z,9.60
2022-12-22T17:29:01.685Z,9.60
2022-12-22T17:31:29.723Z,9.60
2022-12-22T17:33:57.707Z,9.60
2022-12-22T17:36:29.318Z,9.60
2022-12-22T17:38:57.234Z,9.60
2022-12-22T17:41:24.906Z,9.60
2022-12-22T17:43:53.948Z,9.60
2022-12-22T17:46:22.449Z,9.60
2022-12-22T17:48:50.371Z,9.70
2022-12-22T17:51:19.091Z,9.70
2022-12-22T17:53:47.429Z,9.70
2022-12-22T17:56:16.649Z,9.80
2022-12-22T17:58:44.349Z,9.80
2022-12-22T18:01:20.355Z,9.80
2022-12-22T18:03:48.154Z,9.80
2022-12-22T18:06:18.161Z,9.90
2022-12-22T18:08:46.275Z,9.90
2022-12-22T18:11:14.617Z,10.00
2022-12-22T18:13:42.387Z,9.90
2022-12-22T18:16:13.727Z,9.90
2022-12-22T18:18:42.867Z,9.90
2022-12-22T18:21:14.805Z,9.90
2022-12-22T18:23:49.527Z,9.90
2022-12-22T18:26:20.803Z,9.90
2022-12-22T18:28:48.504Z,9.90
2022-12-22T18:31:16.170Z,9.90
2022-12-22T18:33:45.216Z,9.80
2022-12-22T18:36:16.435Z,9.80
2022-12-22T18:38:44.261Z,9.80
2022-12-22T18:41:13.056Z,9.80
2022-12-22T18:43:40.824Z,9.80
2022-12-22T18:46:09.927Z,9.70
2022-12-22T18:48:37.629Z,9.70
2022-12-22T18:51:07.461Z,9.70
2022-12-22T18:53:35.117Z,9.70
2022-12-22T18:56:02.772Z,9.70
2022-12-22T18:58:30.438Z,9.70
2022-12-22T19:00:58.209Z,9.70
2022-12-22T19:03:29.083Z,9.80
2022-12-22T19:05:57.153Z,9.80
2022-12-22T19:08:27.352Z,9.80
2022-12-22T19:10:57.358Z,9.90
2022-12-22T19:13:27.858Z,9.90
2022-12-22T19:15:55.725Z,9.90
2022-12-22T19:18:27.219Z,9.90
2022-12-22T19:20:55.316Z,9.90
2022-12-22T19:23:23.631Z,9.90
2022-12-22T19:25:53.542Z,9.90
2022-12-22T19:28:26.201Z,9.90
2022-12-22T19:30:54.033Z,9.90
2022-12-22T19:33:24.430Z,9.90
2022-12-22T19:35:52.093Z,9.90
2022-12-22T19:38:21.175Z,9.90
2022-12-22T19:40:50.722Z,9.80
2022-12-22T19:43:20.173Z,9.90
2022-12-22T19:45:51.361Z,9.90
2022-12-22T19:48:20.602Z,9.80
2022-12-22T19:50:48.407Z,9.80
2022-12-22T19:53:16.402Z,9.80
2022-12-22T19:55:44.807Z,9.90
2022-12-22T19:58:15.546Z,9.90
2022-12-22T20:00:45.438Z,9.80
2022-12-22T20:03:15.235Z,9.70
2022-12-22T20:05:42.958Z,9.70
2022-12-22T20:08:10.632Z,9.80
2022-12-22T20:10:39.449Z,9.80
2022-12-22T20:13:08.430Z,9.80
2022-12-22T20:15:37.414Z,9.80
2022-12-22T20:18:14.269Z,9.70
2022-12-22T20:20:42.088Z,9.60
2022-12-22T20:23:12.751Z,9.50
2022-12-22T20:25:41.571Z,9.50
2022-12-22T20:28:13.219Z,9.50
2022-12-22T20:30:40.993Z,9.40
2022-12-22T20:33:10.048Z,9.40
2022-12-22T20:35:38.459Z,9.40
2022-12-22T20:38:13.634Z,9.40
2022-12-22T20:40:41.351Z,9.30
2022-12-22T20:43:12.400Z,9.30
2022-12-22T20:45:40.107Z,9.30
2022-12-22T20:48:08.003Z,9.40
2022-12-22T20:50:36.997Z,9.30
2022-12-22T20:53:05.334Z,9.40
2022-12-22T20:55:33.017Z,9.30
2022-12-22T20:58:01.051Z,9.30
2022-12-22T21:00:29.609Z,9.30
2022-12-22T21:02:57.603Z,9.30
2022-12-22T21:05:25.363Z,9.30
2022-12-22T21:07:54.355Z,9.30
2022-12-22T21:10:23.050Z,9.30
2022-12-22T21:12:51.141Z,9.30
2022-12-22T21:15:19.591Z,9.30
2022-12-22T21:17:52.786Z,9.30
2022-12-22T21:20:25.427Z,9.30
2022-12-22T21:22:54.525Z,9.20
2022-12-22T21:25:23.037Z,9.20
2022-12-22T21:27:51.373Z,9.30
2022-12-22T21:30:20.674Z,9.30
2022-12-22T21:32:48.645Z,9.30
2022-12-22T21:35:17.233Z,9.20
2022-12-22T21:37:45.934Z,9.20
2022-12-22T21:40:22.173Z,9.20
2022-12-22T21:42:50.093Z,9.30
2022-12-22T21:45:18.811Z,9.20
2022-12-22T21:47:46.851Z,9.20
2022-12-22T21:50:22.055Z,9.20
2022-12-22T21:52:53.935Z,9.20
2022-12-22T21:55:25.915Z,9.20
2022-12-22T21:57:53.569Z,9.20
2022-12-22T22:00:21.681Z,9.20
2022-12-22T22:02:49.767Z,9.30
2022-12-22T22:05:25.860Z,9.30
2022-12-22T22:07:53.680Z,9.30
2022-12-22T22:10:23.822Z,9.30
2022-12-22T22:12:51.457Z,9.30
2022-12-22T22:15:19.695Z,9.20
2022-12-22T22:17:47.394Z,9.30
2022-12-22T22:20:16.848Z,9.20
2022-12-22T22:22:44.915Z,9.20
2022-12-22T22:25:12.898Z,9.20
2022-12-22T22:27:47.500Z,9.30
2022-12-22T22:30:17.248Z,9.30
2022-12-22T22:32:45.122Z,9.30
2022-12-22T22:35:13.292Z,9.30
2022-12-22T22:37:41.188Z,9.20
2022-12-22T22:40:10.235Z,9.20
2022-12-22T22:42:38.331Z,9.20
2022-12-22T22:45:08.342Z,9.30
2022-12-22T22:47:35.987Z,9.30
2022-12-22T22:50:08.733Z,9.30
2022-12-22T22:52:36.611Z,9.30
2022-12-22T22:55:04.499Z,9.20
2022-12-22T22:57:32.313Z,9.20
2022-12-22T22:59:59.948Z,9.20
2022-12-22T23:02:29.115Z,9.20
2022-12-22T23:04:56.879Z,9.20
2022-12-22T23:07:24.553Z,9.20
2022-12-22T23:09:52.215Z,9.30
2022-12-22T23:12:19.885Z,9.20
2022-12-22T23:14:47.513Z,9.20
2022-12-22T23:17:15.172Z,9.30
2022-12-22T23:19:44.226Z,9.30
2022-12-22T23:22:11.867Z,9.30
2022-12-22T23:24:39.513Z,9.30
2022-12-22T23:27:07.216Z,9.30
2022-12-22T23:29:34.890Z,9.30
2022-12-22T23:32:02.585Z,9.30
2022-12-22T23:34:30.300Z,9.30
2022-12-22T23:36:59.339Z,9.20
2022-12-22T23:39:27.003Z,9.30
2022-12-22T23:41:54.654Z,9.30
2022-12-22T23:44:22.288Z,9.30
2022-12-22T23:46:50.110Z,9.30
2022-12-22T23:49:17.807Z,9.30
2022-12-22T23:51:45.490Z,9.40
2022-12-22T23:54:14.503Z,9.30
2022-12-22T23:56:42.182Z,9.30
2022-12-22T23:59:09.834Z,9.50
